Victoria, Alabama
Current Conditions -  °F | °C
As of 2:56 PM on Tuesday 27 Jan 2015 (Local Time) from KSXS Reporting Station
Clear Clear  
Wind Chill: 60°   Ceiling: Unl
Heat Index: 60°   Visibility: 10mi
Dew Point: 32°   Wind: 14mph
Humidity: 34%   Direction: 320°NW
Pressure: 30.01"   Gusts: 23mph
Location:  31.5584°N, 86.0569°W
Report Text: KSXS 272056Z AUTO 32012G20KT 10SM CLR 16/00 A3001 RMK AO2 SLP165 T01570000
Loading
Personal Weather Stations






























Interactive Weather Map New forecast layout! Learn more

10-Day Weather Forecast

Advertisements
Track Severe Weather on mobile